TFM - Tactical Decision Aid (Experimental) INFO Settings

ID: Runway Winds: CIG/VIS Threshold: METAR Board: Map:

kiad - Washington-Dulles Intl

Updated at: 1135 UTC 27 Feb 2015
Latest TAF at: 1121 UTC 27 Feb 2015

TAF Board

Time1052Z27/12Z27/13Z27/14Z27/15Z27/16Z27/17Z27/18Z27/19Z27/20Z27/21Z27/22Z27/23Z28/00Z
TypeOBSPRVLPRVLPRVLPRVLPRVLPRVLPRVLPRVLPRVLPRVLPRVLPRVLPRVL
VIS9>6>6>6>6>6>6>6>6>6>6>6>6>6
CIG4545454535353535353535------
CoverOVCOVCOVCOVCBKNBKNBKNBKNBKNBKNBKNSCTSCTSCT
FltCatVFRVFRVFRVFRVFRVFRVFRVFRVFRVFRVFRVFRVFRVFR
WX----------------------------
WDir360360360360340340340340340340340340340340
WSpd666612121212121212999
WGst--------20202020202020------
TAF
KIAD 271121Z 2712/2818 36006KT P6SM FEW030 OVC045
  FM271500 34012G20KT P6SM BKN035
  FM272200 34009KT P6SM SCT040
  FM280300 35004KT P6SM BKN150


METAR
KIAD 271052Z 36006KT 9SM FEW032 OVC045 M02/M07 A3027 RMK AO2 SLP253 T10171067
KIAD 271009Z 35007KT 8SM SCT024 BKN033 OVC045 M02/M07 A3025 RMK AO2

TAF/METAR Board Legend

Potential Impact
  None Marginal Slight Moderate High
Visibility (sm) > ≤X≤ <
Ceiling (100 ft) > ≤X≤ <
Wind Speed (kt) <10 10≤X<20 20≤X<30 ≥30
Wind Gust (kt) <15 15≤X<25 25≤X<35 ≥35
Weather No Wx Reported VCTS -TS,-FZRA TS,FZRA +TS,+FZRA




Notice: Undefined index: kiad in /caws/site/new_awc/application/modules/trafficflowmgmt/controllers/TdaController.php on line 188

Notice: Undefined index: kiad in /caws/site/new_awc/application/modules/trafficflowmgmt/controllers/TdaController.php on line 189